sensor_id;sensor_type;location;lat;lon;timestamp;temperature;humidity
24382;DHT22;12502;50.678;7.172;2022-11-20T00:00:20;3.10;99.90
24382;DHT22;12502;50.678;7.172;2022-11-20T00:05:22;3.10;99.90
24382;DHT22;12502;50.678;7.172;2022-11-20T00:10:23;3.20;99.90
24382;DHT22;12502;50.678;7.172;2022-11-20T00:15:25;3.20;99.90
24382;DHT22;12502;50.678;7.172;2022-11-20T00:20:27;3.20;99.90
24382;DHT22;12502;50.678;7.172;2022-11-20T00:25:28;3.20;99.90
24382;DHT22;12502;50.678;7.172;2022-11-20T00:30:30;3.20;99.90
24382;DHT22;12502;50.678;7.172;2022-11-20T00:35:32;3.20;99.90
24382;DHT22;12502;50.678;7.172;2022-11-20T00:40:33;3.20;99.90
24382;DHT22;12502;50.678;7.172;2022-11-20T00:45:35;3.20;99.90
24382;DHT22;12502;50.678;7.172;2022-11-20T00:50:37;3.20;99.90
24382;DHT22;12502;50.678;7.172;2022-11-20T00:55:38;3.20;99.90
24382;DHT22;12502;50.678;7.172;2022-11-20T01:00:40;3.30;99.90
24382;DHT22;12502;50.678;7.172;2022-11-20T01:05:42;3.30;99.90
24382;DHT22;12502;50.678;7.172;2022-11-20T01:10:43;3.30;99.90
24382;DHT22;12502;50.678;7.172;2022-11-20T01:15:45;3.30;99.90
24382;DHT22;12502;50.678;7.172;2022-11-20T01:20:47;3.30;99.90
24382;DHT22;12502;50.678;7.172;2022-11-20T01:25:49;3.30;99.90
24382;DHT22;12502;50.678;7.172;2022-11-20T01:30:50;3.30;99.90
24382;DHT22;12502;50.678;7.172;2022-11-20T01:35:52;3.20;99.90
24382;DHT22;12502;50.678;7.172;2022-11-20T01:40:55;3.20;99.90
24382;DHT22;12502;50.678;7.172;2022-11-20T01:46:31;3.20;99.90
24382;DHT22;12502;50.678;7.172;2022-11-20T01:51:48;3.20;99.90
24382;DHT22;12502;50.678;7.172;2022-11-20T01:56:55;3.20;99.90
24382;DHT22;12502;50.678;7.172;2022-11-20T02:01:58;3.20;99.90
24382;DHT22;12502;50.678;7.172;2022-11-20T02:07:01;3.30;99.90
24382;DHT22;12502;50.678;7.172;2022-11-20T02:12:04;3.30;99.90
24382;DHT22;12502;50.678;7.172;2022-11-20T02:17:06;3.30;99.90
24382;DHT22;12502;50.678;7.172;2022-11-20T02:22:48;3.30;99.90
24382;DHT22;12502;50.678;7.172;2022-11-20T02:27:52;3.30;99.90
24382;DHT22;12502;50.678;7.172;2022-11-20T02:32:54;3.30;99.90
24382;DHT22;12502;50.678;7.172;2022-11-20T02:37:59;3.30;99.90
24382;DHT22;12502;50.678;7.172;2022-11-20T02:43:02;3.40;99.90
24382;DHT22;12502;50.678;7.172;2022-11-20T02:48:05;3.30;99.90
24382;DHT22;12502;50.678;7.172;2022-11-20T02:53:07;3.30;99.90
24382;DHT22;12502;50.678;7.172;2022-11-20T02:58:09;3.30;99.90
24382;DHT22;12502;50.678;7.172;2022-11-20T03:03:11;3.30;99.90
24382;DHT22;12502;50.678;7.172;2022-11-20T03:08:13;3.30;99.90
24382;DHT22;12502;50.678;7.172;2022-11-20T03:13:14;3.30;99.90
24382;DHT22;12502;50.678;7.172;2022-11-20T03:18:16;3.30;99.90
24382;DHT22;12502;50.678;7.172;2022-11-20T03:23:17;3.40;99.90
24382;DHT22;12502;50.678;7.172;2022-11-20T03:28:19;3.40;99.90
24382;DHT22;12502;50.678;7.172;2022-11-20T03:33:21;3.40;99.90
24382;DHT22;12502;50.678;7.172;2022-11-20T03:38:23;3.40;99.90
24382;DHT22;12502;50.678;7.172;2022-11-20T03:43:24;3.30;99.90
24382;DHT22;12502;50.678;7.172;2022-11-20T03:48:26;3.40;99.90
24382;DHT22;12502;50.678;7.172;2022-11-20T03:53:28;3.40;99.90
24382;DHT22;12502;50.678;7.172;2022-11-20T03:58:30;3.40;99.90
24382;DHT22;12502;50.678;7.172;2022-11-20T04:03:32;3.40;99.90
24382;DHT22;12502;50.678;7.172;2022-11-20T04:08:34;3.40;99.90
24382;DHT22;12502;50.678;7.172;2022-11-20T04:13:36;3.40;99.90
24382;DHT22;12502;50.678;7.172;2022-11-20T04:18:38;3.40;99.90
24382;DHT22;12502;50.678;7.172;2022-11-20T04:23:40;3.40;99.90
24382;DHT22;12502;50.678;7.172;2022-11-20T04:28:42;3.40;99.90
24382;DHT22;12502;50.678;7.172;2022-11-20T04:33:44;3.40;99.90
24382;DHT22;12502;50.678;7.172;2022-11-20T04:38:46;3.40;99.90
24382;DHT22;12502;50.678;7.172;2022-11-20T04:43:56;3.40;99.90
24382;DHT22;12502;50.678;7.172;2022-11-20T04:49:01;3.50;99.90
24382;DHT22;12502;50.678;7.172;2022-11-20T04:54:03;3.50;99.90
24382;DHT22;12502;50.678;7.172;2022-11-20T04:59:04;3.50;99.90
24382;DHT22;12502;50.678;7.172;2022-11-20T05:04:06;3.50;99.90
24382;DHT22;12502;50.678;7.172;2022-11-20T05:09:08;3.60;99.90
24382;DHT22;12502;50.678;7.172;2022-11-20T05:14:10;3.60;99.90
24382;DHT22;12502;50.678;7.172;2022-11-20T05:19:12;3.60;99.90
24382;DHT22;12502;50.678;7.172;2022-11-20T05:24:13;3.60;99.90
24382;DHT22;12502;50.678;7.172;2022-11-20T05:29:15;3.50;99.90
24382;DHT22;12502;50.678;7.172;2022-11-20T05:34:17;3.60;99.90
24382;DHT22;12502;50.678;7.172;2022-11-20T05:39:18;3.60;99.90
24382;DHT22;12502;50.678;7.172;2022-11-20T05:44:20;3.60;99.90
24382;DHT22;12502;50.678;7.172;2022-11-20T05:49:22;3.60;99.90
24382;DHT22;12502;50.678;7.172;2022-11-20T05:54:24;3.60;99.90
24382;DHT22;12502;50.678;7.172;2022-11-20T05:59:27;3.60;99.90
24382;DHT22;12502;50.678;7.172;2022-11-20T06:04:28;3.70;99.90
24382;DHT22;12502;50.678;7.172;2022-11-20T06:09:30;3.70;99.90
24382;DHT22;12502;50.678;7.172;2022-11-20T06:14:32;3.70;99.90
24382;DHT22;12502;50.678;7.172;2022-11-20T06:19:34;3.70;99.90
24382;DHT22;12502;50.678;7.172;2022-11-20T06:24:36;3.70;99.90
24382;DHT22;12502;50.678;7.172;2022-11-20T06:29:37;3.80;99.90
24382;DHT22;12502;50.678;7.172;2022-11-20T06:34:39;3.80;99.90
24382;DHT22;12502;50.678;7.172;2022-11-20T06:39:41;3.80;99.90
24382;DHT22;12502;50.678;7.172;2022-11-20T06:44:43;3.80;99.90
24382;DHT22;12502;50.678;7.172;2022-11-20T06:49:44;3.80;99.90
24382;DHT22;12502;50.678;7.172;2022-11-20T06:54:46;3.80;99.90
24382;DHT22;12502;50.678;7.172;2022-11-20T06:59:48;3.80;99.90
24382;DHT22;12502;50.678;7.172;2022-11-20T07:04:50;3.90;99.90
24382;DHT22;12502;50.678;7.172;2022-11-20T07:09:52;3.90;99.90
24382;DHT22;12502;50.678;7.172;2022-11-20T07:14:53;3.90;99.90
24382;DHT22;12502;50.678;7.172;2022-11-20T07:19:55;3.90;99.90
24382;DHT22;12502;50.678;7.172;2022-11-20T07:24:57;3.90;99.90
24382;DHT22;12502;50.678;7.172;2022-11-20T07:29:59;4.00;99.90
24382;DHT22;12502;50.678;7.172;2022-11-20T07:35:00;4.00;99.90
24382;DHT22;12502;50.678;7.172;2022-11-20T07:40:02;4.00;99.90
24382;DHT22;12502;50.678;7.172;2022-11-20T07:45:05;4.00;99.90
24382;DHT22;12502;50.678;7.172;2022-11-20T07:50:07;4.10;99.90
24382;DHT22;12502;50.678;7.172;2022-11-20T07:55:09;4.10;99.90
24382;DHT22;12502;50.678;7.172;2022-11-20T08:00:12;4.10;99.90
24382;DHT22;12502;50.678;7.172;2022-11-20T08:05:14;4.10;99.90
24382;DHT22;12502;50.678;7.172;2022-11-20T08:10:16;4.10;99.90
24382;DHT22;12502;50.678;7.172;2022-11-20T08:15:18;4.10;99.90
24382;DHT22;12502;50.678;7.172;2022-11-20T08:20:19;4.10;99.90
24382;DHT22;12502;50.678;7.172;2022-11-20T08:25:21;4.10;99.90
24382;DHT22;12502;50.678;7.172;2022-11-20T08:30:23;4.10;99.90
24382;DHT22;12502;50.678;7.172;2022-11-20T08:35:25;4.10;99.90
24382;DHT22;12502;50.678;7.172;2022-11-20T08:40:27;4.20;99.90
24382;DHT22;12502;50.678;7.172;2022-11-20T08:45:28;4.20;99.90
24382;DHT22;12502;50.678;7.172;2022-11-20T08:50:34;4.30;99.90
24382;DHT22;12502;50.678;7.172;2022-11-20T08:55:36;4.30;99.90
24382;DHT22;12502;50.678;7.172;2022-11-20T09:00:38;4.40;99.90
24382;DHT22;12502;50.678;7.172;2022-11-20T09:05:40;4.50;99.90
24382;DHT22;12502;50.678;7.172;2022-11-20T09:10:41;4.50;99.90
24382;DHT22;12502;50.678;7.172;2022-11-20T09:15:43;4.50;99.90
24382;DHT22;12502;50.678;7.172;2022-11-20T09:20:45;4.50;99.90
24382;DHT22;12502;50.678;7.172;2022-11-20T09:25:47;4.60;99.90
24382;DHT22;12502;50.678;7.172;2022-11-20T09:30:48;4.60;99.90
24382;DHT22;12502;50.678;7.172;2022-11-20T09:35:50;4.70;99.90
24382;DHT22;12502;50.678;7.172;2022-11-20T09:41:04;4.70;99.90
24382;DHT22;12502;50.678;7.172;2022-11-20T09:46:44;4.70;99.90
24382;DHT22;12502;50.678;7.172;2022-11-20T09:51:53;4.80;99.90
24382;DHT22;12502;50.678;7.172;2022-11-20T09:57:02;5.00;99.90
24382;DHT22;12502;50.678;7.172;2022-11-20T10:18:28;5.40;99.90
24382;DHT22;12502;50.678;7.172;2022-11-20T10:29:14;5.50;99.90
24382;DHT22;12502;50.678;7.172;2022-11-20T10:50:28;5.60;99.90
24382;DHT22;12502;50.678;7.172;2022-11-20T10:55:45;5.60;99.90
24382;DHT22;12502;50.678;7.172;2022-11-20T11:00:48;5.60;99.90
24382;DHT22;12502;50.678;7.172;2022-11-20T11:06:00;5.60;99.90
24382;DHT22;12502;50.678;7.172;2022-11-20T11:11:28;5.60;99.90
24382;DHT22;12502;50.678;7.172;2022-11-20T11:16:31;5.60;99.90
24382;DHT22;12502;50.678;7.172;2022-11-20T11:21:33;5.60;99.90
24382;DHT22;12502;50.678;7.172;2022-11-20T11:26:35;5.60;99.90
24382;DHT22;12502;50.678;7.172;2022-11-20T11:31:40;5.70;99.90
24382;DHT22;12502;50.678;7.172;2022-11-20T11:37:02;5.70;99.90
24382;DHT22;12502;50.678;7.172;2022-11-20T11:42:11;5.80;99.90
24382;DHT22;12502;50.678;7.172;2022-11-20T11:47:24;5.80;99.90
24382;DHT22;12502;50.678;7.172;2022-11-20T11:52:26;5.90;99.90
24382;DHT22;12502;50.678;7.172;2022-11-20T11:57:54;5.90;99.90
24382;DHT22;12502;50.678;7.172;2022-11-20T12:18:44;6.20;99.90
24382;DHT22;12502;50.678;7.172;2022-11-20T12:28:55;6.30;99.90
24382;DHT22;12502;50.678;7.172;2022-11-20T12:39:41;6.30;99.90
24382;DHT22;12502;50.678;7.172;2022-11-20T12:45:14;6.40;99.90
24382;DHT22;12502;50.678;7.172;2022-11-20T12:50:24;6.50;99.90
24382;DHT22;12502;50.678;7.172;2022-11-20T13:01:30;6.50;99.90
24382;DHT22;12502;50.678;7.172;2022-11-20T13:06:46;6.50;99.90
24382;DHT22;12502;50.678;7.172;2022-11-20T13:11:57;6.60;99.90
24382;DHT22;12502;50.678;7.172;2022-11-20T13:22:49;6.70;99.90
24382;DHT22;12502;50.678;7.172;2022-11-20T13:27:50;6.70;99.90
24382;DHT22;12502;50.678;7.172;2022-11-20T13:32:54;6.70;99.90
24382;DHT22;12502;50.678;7.172;2022-11-20T13:38:11;6.70;99.90
24382;DHT22;12502;50.678;7.172;2022-11-20T13:43:26;6.70;99.90
24382;DHT22;12502;50.678;7.172;2022-11-20T13:48:43;6.60;99.90
24382;DHT22;12502;50.678;7.172;2022-11-20T13:54:01;6.60;99.90
24382;DHT22;12502;50.678;7.172;2022-11-20T14:04:52;6.60;99.90
24382;DHT22;12502;50.678;7.172;2022-11-20T14:09:56;6.70;99.90
24382;DHT22;12502;50.678;7.172;2022-11-20T14:14:58;6.70;99.90
24382;DHT22;12502;50.678;7.172;2022-11-20T14:20:04;6.70;99.90
24382;DHT22;12502;50.678;7.172;2022-11-20T14:30:43;6.80;99.90
24382;DHT22;12502;50.678;7.172;2022-11-20T14:35:49;6.70;99.90
24382;DHT22;12502;50.678;7.172;2022-11-20T14:40:52;6.60;99.90
24382;DHT22;12502;50.678;7.172;2022-11-20T14:46:03;6.80;99.90
24382;DHT22;12502;50.678;7.172;2022-11-20T14:51:05;6.80;99.90
24382;DHT22;12502;50.678;7.172;2022-11-20T14:56:09;6.80;99.90
24382;DHT22;12502;50.678;7.172;2022-11-20T15:01:12;6.80;99.90
24382;DHT22;12502;50.678;7.172;2022-11-20T15:06:26;6.80;99.90
24382;DHT22;12502;50.678;7.172;2022-11-20T15:11:32;6.70;99.90
24382;DHT22;12502;50.678;7.172;2022-11-20T15:16:34;6.70;99.90
24382;DHT22;12502;50.678;7.172;2022-11-20T15:21:37;6.70;99.90
24382;DHT22;12502;50.678;7.172;2022-11-20T15:26:39;6.70;99.90
24382;DHT22;12502;50.678;7.172;2022-11-20T15:31:41;6.80;99.90
24382;DHT22;12502;50.678;7.172;2022-11-20T15:36:44;6.80;99.90
24382;DHT22;12502;50.678;7.172;2022-11-20T15:41:46;6.80;99.90
24382;DHT22;12502;50.678;7.172;2022-11-20T15:46:48;6.70;99.90
24382;DHT22;12502;50.678;7.172;2022-11-20T15:51:50;6.80;99.90
24382;DHT22;12502;50.678;7.172;2022-11-20T15:56:54;6.80;99.90
24382;DHT22;12502;50.678;7.172;2022-11-20T16:02:15;6.70;99.90
24382;DHT22;12502;50.678;7.172;2022-11-20T16:07:20;6.60;99.90
24382;DHT22;12502;50.678;7.172;2022-11-20T16:12:22;6.60;99.90
24382;DHT22;12502;50.678;7.172;2022-11-20T16:17:42;6.60;99.90
24382;DHT22;12502;50.678;7.172;2022-11-20T16:22:44;6.50;99.90
24382;DHT22;12502;50.678;7.172;2022-11-20T16:27:45;6.50;99.90
24382;DHT22;12502;50.678;7.172;2022-11-20T16:32:47;6.50;99.90
24382;DHT22;12502;50.678;7.172;2022-11-20T16:37:49;6.50;99.90
24382;DHT22;12502;50.678;7.172;2022-11-20T16:42:51;6.50;99.90
24382;DHT22;12502;50.678;7.172;2022-11-20T16:47:52;6.60;99.90
24382;DHT22;12502;50.678;7.172;2022-11-20T16:52:55;6.60;99.90
24382;DHT22;12502;50.678;7.172;2022-11-20T16:57:56;6.50;99.90
24382;DHT22;12502;50.678;7.172;2022-11-20T17:02:58;6.50;99.90
24382;DHT22;12502;50.678;7.172;2022-11-20T17:08:00;6.50;99.90
24382;DHT22;12502;50.678;7.172;2022-11-20T17:13:02;6.50;99.90
24382;DHT22;12502;50.678;7.172;2022-11-20T17:18:04;6.50;99.90
24382;DHT22;12502;50.678;7.172;2022-11-20T17:23:05;6.50;99.90
24382;DHT22;12502;50.678;7.172;2022-11-20T17:28:07;6.60;99.90
24382;DHT22;12502;50.678;7.172;2022-11-20T17:33:09;6.50;99.90
24382;DHT22;12502;50.678;7.172;2022-11-20T17:38:11;6.50;99.90
24382;DHT22;12502;50.678;7.172;2022-11-20T17:43:12;6.50;99.90
24382;DHT22;12502;50.678;7.172;2022-11-20T17:48:14;6.50;99.90
24382;DHT22;12502;50.678;7.172;2022-11-20T17:53:16;6.50;99.90
24382;DHT22;12502;50.678;7.172;2022-11-20T17:58:17;6.50;99.90
24382;DHT22;12502;50.678;7.172;2022-11-20T18:03:19;6.50;99.90
24382;DHT22;12502;50.678;7.172;2022-11-20T18:08:21;6.50;99.90
24382;DHT22;12502;50.678;7.172;2022-11-20T18:13:22;6.50;99.90
24382;DHT22;12502;50.678;7.172;2022-11-20T18:18:48;6.50;99.90
24382;DHT22;12502;50.678;7.172;2022-11-20T18:23:50;6.50;99.90
24382;DHT22;12502;50.678;7.172;2022-11-20T18:28:52;6.60;99.90
24382;DHT22;12502;50.678;7.172;2022-11-20T18:33:54;6.60;99.90
24382;DHT22;12502;50.678;7.172;2022-11-20T18:38:59;6.60;99.90
24382;DHT22;12502;50.678;7.172;2022-11-20T18:44:04;6.60;99.90
24382;DHT22;12502;50.678;7.172;2022-11-20T18:49:25;6.60;99.90
24382;DHT22;12502;50.678;7.172;2022-11-20T18:54:27;6.70;99.90
24382;DHT22;12502;50.678;7.172;2022-11-20T18:59:29;6.70;99.90
24382;DHT22;12502;50.678;7.172;2022-11-20T19:04:32;6.80;99.90
24382;DHT22;12502;50.678;7.172;2022-11-20T19:09:34;6.70;99.90
24382;DHT22;12502;50.678;7.172;2022-11-20T19:14:36;6.70;99.90
24382;DHT22;12502;50.678;7.172;2022-11-20T19:19:38;6.80;99.90
24382;DHT22;12502;50.678;7.172;2022-11-20T19:24:40;6.70;99.90
24382;DHT22;12502;50.678;7.172;2022-11-20T19:29:42;6.70;99.90
24382;DHT22;12502;50.678;7.172;2022-11-20T19:34:43;6.70;99.90
24382;DHT22;12502;50.678;7.172;2022-11-20T19:39:45;6.70;99.90
24382;DHT22;12502;50.678;7.172;2022-11-20T19:44:47;6.80;99.90
24382;DHT22;12502;50.678;7.172;2022-11-20T19:49:49;6.80;99.90
24382;DHT22;12502;50.678;7.172;2022-11-20T19:54:51;6.80;99.90
24382;DHT22;12502;50.678;7.172;2022-11-20T19:59:52;6.70;99.90
24382;DHT22;12502;50.678;7.172;2022-11-20T20:04:55;6.70;99.90
24382;DHT22;12502;50.678;7.172;2022-11-20T20:09:57;6.60;99.90
24382;DHT22;12502;50.678;7.172;2022-11-20T20:14:59;6.60;99.90
24382;DHT22;12502;50.678;7.172;2022-11-20T20:20:00;6.70;99.90
24382;DHT22;12502;50.678;7.172;2022-11-20T20:25:02;6.70;99.90
24382;DHT22;12502;50.678;7.172;2022-11-20T20:30:06;6.80;99.90
24382;DHT22;12502;50.678;7.172;2022-11-20T20:35:08;6.90;99.90
24382;DHT22;12502;50.678;7.172;2022-11-20T20:40:10;7.00;99.90
24382;DHT22;12502;50.678;7.172;2022-11-20T20:45:16;7.10;99.90
24382;DHT22;12502;50.678;7.172;2022-11-20T20:50:17;7.10;99.90
24382;DHT22;12502;50.678;7.172;2022-11-20T20:55:19;7.10;99.90
24382;DHT22;12502;50.678;7.172;2022-11-20T21:00:21;7.20;99.90
24382;DHT22;12502;50.678;7.172;2022-11-20T21:05:22;7.30;99.90
24382;DHT22;12502;50.678;7.172;2022-11-20T21:10:24;7.40;99.90
24382;DHT22;12502;50.678;7.172;2022-11-20T21:15:26;7.30;99.90
24382;DHT22;12502;50.678;7.172;2022-11-20T21:20:28;7.30;99.90
24382;DHT22;12502;50.678;7.172;2022-11-20T21:25:48;7.30;99.90
24382;DHT22;12502;50.678;7.172;2022-11-20T21:30:50;7.30;99.90
24382;DHT22;12502;50.678;7.172;2022-11-20T21:35:51;7.30;99.90
24382;DHT22;12502;50.678;7.172;2022-11-20T21:40:56;7.30;99.90
24382;DHT22;12502;50.678;7.172;2022-11-20T21:46:02;7.30;99.90
24382;DHT22;12502;50.678;7.172;2022-11-20T21:51:17;7.40;99.90
24382;DHT22;12502;50.678;7.172;2022-11-20T21:56:20;7.30;99.90
24382;DHT22;12502;50.678;7.172;2022-11-20T22:01:25;7.30;99.90
24382;DHT22;12502;50.678;7.172;2022-11-20T22:06:32;7.30;99.90
24382;DHT22;12502;50.678;7.172;2022-11-20T22:11:34;7.30;99.90
24382;DHT22;12502;50.678;7.172;2022-11-20T22:16:37;7.30;99.90
24382;DHT22;12502;50.678;7.172;2022-11-20T22:21:38;7.30;99.90
24382;DHT22;12502;50.678;7.172;2022-11-20T22:26:42;7.30;99.90
24382;DHT22;12502;50.678;7.172;2022-11-20T22:31:44;7.30;99.90
24382;DHT22;12502;50.678;7.172;2022-11-20T22:36:46;7.40;99.90
24382;DHT22;12502;50.678;7.172;2022-11-20T22:41:48;7.30;99.90
24382;DHT22;12502;50.678;7.172;2022-11-20T22:46:49;7.40;99.90
24382;DHT22;12502;50.678;7.172;2022-11-20T22:51:51;7.40;99.90
24382;DHT22;12502;50.678;7.172;2022-11-20T22:56:53;7.40;99.90
24382;DHT22;12502;50.678;7.172;2022-11-20T23:01:54;7.50;99.90
24382;DHT22;12502;50.678;7.172;2022-11-20T23:06:56;7.50;99.90
24382;DHT22;12502;50.678;7.172;2022-11-20T23:11:58;7.50;99.90
24382;DHT22;12502;50.678;7.172;2022-11-20T23:16:59;7.50;99.90
24382;DHT22;12502;50.678;7.172;2022-11-20T23:22:02;7.60;99.90
24382;DHT22;12502;50.678;7.172;2022-11-20T23:27:04;7.60;99.90
24382;DHT22;12502;50.678;7.172;2022-11-20T23:32:06;7.60;99.90
24382;DHT22;12502;50.678;7.172;2022-11-20T23:37:07;7.60;99.90
24382;DHT22;12502;50.678;7.172;2022-11-20T23:42:09;7.60;99.90
24382;DHT22;12502;50.678;7.172;2022-11-20T23:47:10;7.60;99.90
24382;DHT22;12502;50.678;7.172;2022-11-20T23:52:12;7.60;99.90
24382;DHT22;12502;50.678;7.172;2022-11-20T23:57:14;7.60;99.90
